Time;durP1;ratioP1;P1;durP2;ratioP2;P2;SDS_P1;SDS_P2;PMS_P1;PMS_P2;Temp;Humidity;BMP_temperature;BMP_pressure;BME280_temperature;BME280_humidity;BME280_pressure;Samples;Min_cycle;Max_cycle;Signal;HPM_P1;HPM_P2
2023/10/18 00:00:57;;;;;;;0.85;0.85;;;;;;;;;;6243954;23;20012;-73
2023/10/18 00:03:25;;;;;;;1.88;1.48;;;;;;;;;;6192733;23;20105;-74
2023/10/18 00:05:51;;;;;;;1.20;1.17;;;;;;;;;;6243216;23;20012;-73
2023/10/18 00:08:17;;;;;;;1.20;1.20;;;;;;;;;;6216848;23;20018;-73
2023/10/18 00:10:44;;;;;;;3.72;1.08;;;;;;;;;;6242943;23;20114;-74
2023/10/18 00:13:11;;;;;;;1.52;1.42;;;;;;;;;;6243332;23;20110;-74
2023/10/18 00:15:38;;;;;;;1.35;1.20;;;;;;;;;;6216018;23;20012;-72
2023/10/18 00:18:04;;;;;;;1.27;1.17;;;;;;;;;;6243144;23;20016;-73
2023/10/18 00:20:30;;;;;;;1.50;1.40;;;;;;;;;;6243570;23;20023;-73
2023/10/18 00:22:57;;;;;;;2.92;1.60;;;;;;;;;;6215991;23;20016;-74
2023/10/18 00:25:23;;;;;;;1.23;1.02;;;;;;;;;;6243109;23;20055;-73
2023/10/18 00:27:49;;;;;;;1.38;1.13;;;;;;;;;;6216333;23;20580;-74
2023/10/18 00:30:18;;;;;;;1.60;1.60;;;;;;;;;;6242363;23;20023;-76
2023/10/18 00:32:47;;;;;;;2.28;1.27;;;;;;;;;;6242749;23;20024;-73
2023/10/18 00:35:18;;;;;;;1.30;1.20;;;;;;;;;;6243095;23;20008;-73
2023/10/18 00:37:47;;;;;;;1.17;1.17;;;;;;;;;;6216114;23;20016;-73
2023/10/18 00:43:22;;;;;;;1.05;1.05;;;;;;;;;;6244163;23;20403;-73
2023/10/18 00:45:50;;;;;;;1.05;1.05;;;;;;;;;;6242970;23;20016;-73
2023/10/18 00:48:19;;;;;;;1.38;1.30;;;;;;;;;;6243151;23;20456;-74
2023/10/18 00:50:45;;;;;;;1.10;1.10;;;;;;;;;;6216616;23;20484;-74
2023/10/18 00:53:22;;;;;;;1.48;1.17;;;;;;;;;;6216344;23;20066;-74
2023/10/18 00:55:59;;;;;;;2.05;1.30;;;;;;;;;;6216153;23;20016;-74
2023/10/18 00:58:31;;;;;;;1.33;1.30;;;;;;;;;;6218118;23;20490;-74
2023/10/18 01:00:58;;;;;;;1.20;1.20;;;;;;;;;;6242546;23;20396;-73
2023/10/18 01:03:38;;;;;;;1.13;1.13;;;;;;;;;;6216179;23;20066;-73
2023/10/18 01:06:05;;;;;;;1.10;1.02;;;;;;;;;;6193682;23;20108;-72
2023/10/18 01:08:32;;;;;;;1.40;1.30;;;;;;;;;;6244054;23;20008;-72
2023/10/18 01:11:04;;;;;;;0.90;0.90;;;;;;;;;;6217854;23;20028;-73
2023/10/18 01:13:31;;;;;;;1.75;1.40;;;;;;;;;;6217480;23;20024;-72
2023/10/18 01:15:59;;;;;;;1.50;1.50;;;;;;;;;;6191784;23;20019;-74
2023/10/18 01:18:25;;;;;;;0.88;0.88;;;;;;;;;;6242742;23;20012;-73
2023/10/18 01:20:52;;;;;;;1.20;1.20;;;;;;;;;;6242330;23;20012;-74
2023/10/18 01:23:18;;;;;;;1.42;1.40;;;;;;;;;;6216271;23;20107;-73
2023/10/18 01:25:45;;;;;;;3.78;1.58;;;;;;;;;;6242588;23;20066;-72
2023/10/18 01:28:11;;;;;;;0.88;0.88;;;;;;;;;;6216287;23;20043;-74
2023/10/18 01:30:37;;;;;;;1.35;1.15;;;;;;;;;;6241840;23;20007;-74
2023/10/18 01:33:04;;;;;;;2.08;1.20;;;;;;;;;;6242249;23;20030;-73
2023/10/18 01:35:31;;;;;;;1.20;1.20;;;;;;;;;;6242497;23;20019;-73
2023/10/18 01:37:57;;;;;;;1.67;1.40;;;;;;;;;;6242123;23;20054;-73
2023/10/18 01:42:57;;;;;;;2.22;1.60;;;;;;;;;;6242289;23;20016;-73
2023/10/18 01:45:25;;;;;;;1.30;1.20;;;;;;;;;;6242278;23;20606;-74
2023/10/18 01:47:51;;;;;;;1.50;1.20;;;;;;;;;;6242161;23;20015;-73
2023/10/18 01:50:18;;;;;;;1.85;1.30;;;;;;;;;;6215732;23;20012;-74
2023/10/18 01:52:45;;;;;;;1.20;1.20;;;;;;;;;;6242100;23;20058;-74
2023/10/18 01:55:12;;;;;;;1.35;1.25;;;;;;;;;;6242492;23;20058;-73
2023/10/18 01:57:39;;;;;;;1.02;1.02;;;;;;;;;;6215287;23;20491;-73
2023/10/18 02:00:05;;;;;;;1.15;1.05;;;;;;;;;;6215564;23;20065;-73
2023/10/18 02:02:37;;;;;;;1.40;1.30;;;;;;;;;;6241954;23;20361;-75
2023/10/18 02:05:05;;;;;;;0.93;0.93;;;;;;;;;;6190738;23;20039;-74
2023/10/18 02:07:32;;;;;;;1.60;1.50;;;;;;;;;;6215488;23;20436;-74
2023/10/18 02:09:58;;;;;;;1.23;1.20;;;;;;;;;;6241804;23;20031;-73
2023/10/18 02:12:27;;;;;;;1.05;1.05;;;;;;;;;;6215568;23;20483;-73
2023/10/18 02:14:55;;;;;;;5.03;1.10;;;;;;;;;;6215209;23;20039;-73
2023/10/18 02:17:21;;;;;;;1.25;1.17;;;;;;;;;;6215317;23;20087;-74
2023/10/18 02:19:48;;;;;;;1.70;1.27;;;;;;;;;;6242558;23;20464;-74
2023/10/18 02:22:16;;;;;;;0.75;0.75;;;;;;;;;;6215205;23;20073;-74
2023/10/18 02:24:45;;;;;;;2.58;1.20;;;;;;;;;;6241901;23;20012;-72
2023/10/18 02:27:15;;;;;;;1.38;1.27;;;;;;;;;;6216166;23;20020;-72
2023/10/18 02:29:41;;;;;;;3.07;1.43;;;;;;;;;;6215113;23;20357;-73
2023/10/18 02:32:23;;;;;;;1.13;1.13;;;;;;;;;;6241742;23;20183;-74
2023/10/18 02:34:52;;;;;;;2.55;1.48;;;;;;;;;;6218668;23;20494;-73
2023/10/18 02:37:19;;;;;;;1.27;1.27;;;;;;;;;;6241951;23;20019;-74
2023/10/18 02:39:49;;;;;;;1.42;1.30;;;;;;;;;;6241500;23;20069;-73
2023/10/18 02:42:18;;;;;;;1.30;1.20;;;;;;;;;;6215338;23;20065;-73
2023/10/18 02:44:45;;;;;;;1.30;1.30;;;;;;;;;;6190859;23;20012;-72
2023/10/18 02:47:22;;;;;;;1.33;1.23;;;;;;;;;;6242984;23;20012;-74
2023/10/18 02:49:51;;;;;;;4.43;1.02;;;;;;;;;;6243415;23;20404;-72
2023/10/18 02:52:18;;;;;;;0.82;0.82;;;;;;;;;;6245545;23;20020;-74
2023/10/18 02:54:45;;;;;;;0.98;0.98;;;;;;;;;;6250739;23;20019;-73
2023/10/18 02:57:13;;;;;;;1.30;1.20;;;;;;;;;;6223885;23;20019;-74
2023/10/18 02:59:41;;;;;;;2.17;1.58;;;;;;;;;;6222701;23;20012;-75
2023/10/18 03:02:13;;;;;;;1.13;1.13;;;;;;;;;;6242955;23;20507;-75
2023/10/18 03:04:39;;;;;;;1.00;1.00;;;;;;;;;;6216705;23;20364;-74
2023/10/18 03:07:08;;;;;;;1.00;1.00;;;;;;;;;;6241933;23;20023;-73
2023/10/18 03:12:02;;;;;;;1.30;1.30;;;;;;;;;;6241839;23;20027;-73
2023/10/18 03:17:23;;;;;;;0.90;0.90;;;;;;;;;;6215027;23;20012;-73
2023/10/18 03:19:54;;;;;;;1.70;1.20;;;;;;;;;;6241698;23;20043;-74
2023/10/18 03:22:20;;;;;;;;;;;;;;;;;;6216059;23;20035;-74
2023/10/18 03:24:46;;;;;;;1.13;1.10;;;;;;;;;;6241742;23;19911;-73
2023/10/18 03:27:14;;;;;;;0.98;0.98;;;;;;;;;;6215326;23;20008;-73
2023/10/18 03:29:43;;;;;;;1.25;1.25;;;;;;;;;;6215270;23;20016;-74
2023/10/18 03:32:14;;;;;;;1.00;1.00;;;;;;;;;;6241019;23;20020;-73
2023/10/18 03:34:44;;;;;;;1.00;1.00;;;;;;;;;;6240996;23;20023;-73
2023/10/18 03:37:33;;;;;;;1.15;1.15;;;;;;;;;;6241612;23;20088;-72
2023/10/18 03:39:56;;;;;;;2.08;1.50;;;;;;;;;;6240821;23;20021;-72
2023/10/18 03:42:31;;;;;;;1.00;1.00;;;;;;;;;;6214469;23;20023;-73
2023/10/18 03:44:58;;;;;;;1.75;1.35;;;;;;;;;;6241296;23;20139;-71
2023/10/18 03:47:25;;;;;;;1.10;1.10;;;;;;;;;;6189902;23;20095;-73
2023/10/18 03:49:53;;;;;;;1.58;1.48;;;;;;;;;;6214396;23;20008;-71
2023/10/18 03:52:21;;;;;;;1.38;1.27;;;;;;;;;;6214298;23;20016;-73
2023/10/18 03:54:57;;;;;;;1.35;1.33;;;;;;;;;;6241421;23;20012;-73
2023/10/18 03:57:30;;;;;;;3.15;1.35;;;;;;;;;;6216044;23;20012;-74
2023/10/18 03:59:58;;;;;;;1.60;1.20;;;;;;;;;;6242787;23;20091;-72
2023/10/18 04:04:57;;;;;;;2.55;1.65;;;;;;;;;;6242689;23;20012;-71
2023/10/18 04:07:24;;;;;;;4.00;1.67;;;;;;;;;;6216167;23;20022;-73
2023/10/18 04:09:53;;;;;;;1.08;1.08;;;;;;;;;;6242760;23;20495;-72
2023/10/18 04:12:22;;;;;;;1.67;1.57;;;;;;;;;;6243065;23;20441;-73
2023/10/18 04:14:55;;;;;;;4.28;1.77;;;;;;;;;;6241785;23;20503;-71
2023/10/18 04:17:32;;;;;;;3.13;1.80;;;;;;;;;;6217196;23;20061;-71
2023/10/18 04:20:07;;;;;;;1.67;1.58;;;;;;;;;;6218244;23;20023;-72
2023/10/18 04:22:35;;;;;;;1.80;1.60;;;;;;;;;;6215623;23;20067;-73
2023/10/18 04:25:08;;;;;;;1.15;1.15;;;;;;;;;;6243037;23;20012;-72
2023/10/18 04:27:36;;;;;;;1.58;1.48;;;;;;;;;;6215742;23;20567;-74
2023/10/18 04:30:06;;;;;;;4.10;1.83;;;;;;;;;;6190968;23;20028;-72
2023/10/18 04:32:32;;;;;;;2.92;2.28;;;;;;;;;;6217316;23;20020;-72
2023/10/18 04:34:59;;;;;;;3.38;1.85;;;;;;;;;;6244200;23;20011;-72
2023/10/18 04:37:26;;;;;;;6.32;2.00;;;;;;;;;;6242978;23;20018;-73
2023/10/18 04:39:53;;;;;;;3.38;2.63;;;;;;;;;;6215419;23;20103;-72
2023/10/18 04:42:19;;;;;;;3.10;2.80;;;;;;;;;;6218197;23;20012;-73
2023/10/18 04:44:49;;;;;;;6.60;2.60;;;;;;;;;;6216011;23;20011;-72
2023/10/18 04:47:15;;;;;;;2.05;1.90;;;;;;;;;;6190234;23;20142;-72
2023/10/18 04:49:50;;;;;;;1.85;1.70;;;;;;;;;;6242411;23;20015;-72
2023/10/18 04:52:40;;;;;;;1.83;1.70;;;;;;;;;;6242986;23;20020;-73
2023/10/18 04:55:11;;;;;;;2.40;2.20;;;;;;;;;;6217334;23;20016;-74
2023/10/18 04:57:38;;;;;;;1.15;1.15;;;;;;;;;;6243657;23;20008;-72
2023/10/18 05:00:11;;;;;;;3.47;2.35;;;;;;;;;;6216727;23;20023;-74
2023/10/18 05:02:38;;;;;;;3.83;2.05;;;;;;;;;;6216281;23;20008;-73
2023/10/18 05:05:10;;;;;;;1.98;1.83;;;;;;;;;;6243876;23;20067;-72
2023/10/18 05:07:42;;;;;;;1.90;1.80;;;;;;;;;;6190578;23;20008;-74
2023/10/18 05:10:14;;;;;;;1.70;1.60;;;;;;;;;;6192242;23;20028;-70
2023/10/18 05:12:53;;;;;;;2.13;1.80;;;;;;;;;;6215701;23;20479;-70
2023/10/18 05:15:29;;;;;;;1.88;1.77;;;;;;;;;;6218875;23;20031;-69
2023/10/18 05:18:04;;;;;;;2.88;2.30;;;;;;;;;;6215796;23;20579;-70
2023/10/18 05:20:42;;;;;;;3.03;2.30;;;;;;;;;;6243031;23;20004;-70
2023/10/18 05:23:08;;;;;;;2.45;1.95;;;;;;;;;;6242639;23;20415;-69
2023/10/18 05:25:35;;;;;;;1.95;1.85;;;;;;;;;;6242690;23;20018;-69
2023/10/18 05:36:11;;;;;;;1.70;1.60;;;;;;;;;;6242331;23;20040;-68
2023/10/18 05:44:14;;;;;;;1.23;1.23;;;;;;;;;;6102694;23;20061;-68
2023/10/18 05:46:41;;;;;;;1.80;1.70;;;;;;;;;;6118777;23;20022;-68
2023/10/18 05:49:16;;;;;;;1.50;1.40;;;;;;;;;;6166683;23;20440;-68
2023/10/18 05:51:51;;;;;;;1.63;1.52;;;;;;;;;;6240988;23;20012;-68
2023/10/18 05:54:19;;;;;;;1.15;1.15;;;;;;;;;;6241668;23;20015;-68
2023/10/18 05:56:49;;;;;;;1.70;1.60;;;;;;;;;;6189799;23;20365;-70
2023/10/18 06:01:48;;;;;;;1.60;1.50;;;;;;;;;;6241108;23;20008;-67
2023/10/18 06:04:23;;;;;;;1.48;1.48;;;;;;;;;;6241571;23;20023;-67
2023/10/18 06:06:57;;;;;;;1.60;1.23;;;;;;;;;;6240917;23;20449;-70
2023/10/18 06:09:27;;;;;;;1.88;1.77;;;;;;;;;;6240406;23;20102;-69
2023/10/18 06:11:55;;;;;;;1.13;1.13;;;;;;;;;;6214935;23;20058;-68
2023/10/18 06:14:33;;;;;;;1.08;1.08;;;;;;;;;;6241672;23;20047;-69
2023/10/18 06:17:12;;;;;;;1.00;1.00;;;;;;;;;;6242119;23;20460;-68
2023/10/18 06:19:39;;;;;;;1.85;1.75;;;;;;;;;;6242380;23;20016;-69
2023/10/18 06:22:15;;;;;;;2.33;2.17;;;;;;;;;;6242518;23;20012;-67
2023/10/18 06:24:43;;;;;;;1.20;1.13;;;;;;;;;;6242825;23;20008;-68
2023/10/18 06:27:15;;;;;;;1.80;1.70;;;;;;;;;;6242991;23;20026;-70
2023/10/18 06:29:42;;;;;;;1.40;1.38;;;;;;;;;;6243489;23;20051;-70
2023/10/18 06:32:13;;;;;;;1.90;1.80;;;;;;;;;;6215497;23;20024;-70
2023/10/18 06:34:43;;;;;;;1.10;1.10;;;;;;;;;;6241581;23;20020;-73
2023/10/18 06:37:20;;;;;;;1.58;1.35;;;;;;;;;;6242154;23;20026;-69
2023/10/18 06:39:54;;;;;;;1.45;1.42;;;;;;;;;;6241571;23;20089;-69
2023/10/18 06:42:26;;;;;;;1.58;1.48;;;;;;;;;;6240711;23;20322;-69
2023/10/18 06:44:54;;;;;;;2.30;2.20;;;;;;;;;;6214189;23;20016;-69
2023/10/18 06:47:30;;;;;;;1.95;1.63;;;;;;;;;;6214890;23;20008;-69
2023/10/18 06:49:59;;;;;;;2.03;1.92;;;;;;;;;;6241379;23;20103;-70
2023/10/18 06:52:30;;;;;;;2.22;2.03;;;;;;;;;;6240997;23;20775;-69
2023/10/18 06:54:56;;;;;;;;;;;;;;;;;;6241520;23;20012;-69
2023/10/18 06:57:27;;;;;;;2.05;1.92;;;;;;;;;;6214071;23;19914;-70
2023/10/18 07:08:19;;;;;;;2.72;2.13;;;;;;;;;;6176320;23;20031;-68
2023/10/18 07:10:55;;;;;;;2.05;1.95;;;;;;;;;;6214076;22;20414;-69
2023/10/18 07:13:32;;;;;;;1.98;1.88;;;;;;;;;;6214701;23;20360;-69
2023/10/18 07:16:03;;;;;;;1.23;1.23;;;;;;;;;;6241636;23;20016;-68
2023/10/18 07:18:33;;;;;;;1.98;1.88;;;;;;;;;;6239811;23;20019;-65
2023/10/18 07:21:05;;;;;;;1.80;1.70;;;;;;;;;;6239507;23;20075;-68
2023/10/18 07:23:37;;;;;;;2.40;1.45;;;;;;;;;;6232313;23;20016;-70
2023/10/18 07:26:04;;;;;;;3.45;1.70;;;;;;;;;;6219998;22;20032;-70
2023/10/18 07:28:35;;;;;;;1.92;1.73;;;;;;;;;;6232525;22;20027;-68
2023/10/18 07:31:01;;;;;;;;;;;;;;;;;;6270799;22;20046;-68
2023/10/18 07:33:28;;;;;;;1.70;1.60;;;;;;;;;;6273941;22;19919;-68
2023/10/18 07:35:55;;;;;;;2.92;1.65;;;;;;;;;;6273483;22;20016;-69
2023/10/18 07:38:27;;;;;;;1.33;1.33;;;;;;;;;;6246083;22;20023;-69
2023/10/18 07:40:57;;;;;;;4.13;2.10;;;;;;;;;;6264142;22;20043;-69
2023/10/18 07:43:24;;;;;;;2.22;2.13;;;;;;;;;;6270264;22;20011;-70
2023/10/18 07:45:53;;;;;;;2.40;2.20;;;;;;;;;;6271257;22;20403;-70
2023/10/18 07:48:20;;;;;;;2.20;1.90;;;;;;;;;;6220883;22;20016;-70
2023/10/18 07:50:52;;;;;;;2.38;2.28;;;;;;;;;;6272768;22;20008;-70
2023/10/18 07:53:24;;;;;;;1.80;1.67;;;;;;;;;;6278684;22;20057;-82
2023/10/18 07:58:47;;;;;;;2.65;2.35;;;;;;;;;;6268452;22;20039;-83
2023/10/18 08:01:13;;;;;;;1.60;1.60;;;;;;;;;;6260779;23;20410;-82
2023/10/18 08:03:42;;;;;;;2.83;2.60;;;;;;;;;;6259469;23;20012;-82
2023/10/18 08:06:26;;;;;;;2.30;2.10;;;;;;;;;;6258244;23;20012;-83
2023/10/18 08:08:52;;;;;;;1.75;1.50;;;;;;;;;;6260754;23;20019;-83
2023/10/18 08:11:18;;;;;;;1.95;1.85;;;;;;;;;;6259218;23;20038;-86
2023/10/18 08:13:47;;;;;;;2.40;2.20;;;;;;;;;;6269983;23;20047;-82
2023/10/18 08:16:27;;;;;;;3.28;2.40;;;;;;;;;;6236060;23;20019;-83
2023/10/18 09:21:07;;;;;;;2.72;2.20;;;;;;;;;;6213052;23;20463;-85
2023/10/18 09:23:33;;;;;;;2.78;2.50;;;;;;;;;;6140017;23;20081;-84
2023/10/18 13:19:20;;;;;;;3.15;2.60;;;;;;;;;;6233210;22;20016;-85
2023/10/18 13:21:50;;;;;;;2.42;2.33;;;;;;;;;;6244171;22;20051;-83
2023/10/18 13:26:49;;;;;;;2.42;2.22;;;;;;;;;;6273366;22;19999;-82
2023/10/18 13:37:23;;;;;;;2.72;2.50;;;;;;;;;;6204755;22;20013;-80
2023/10/18 13:39:51;;;;;;;2.92;2.72;;;;;;;;;;6217546;22;20023;-85
2023/10/18 13:42:18;;;;;;;3.15;2.63;;;;;;;;;;6242214;22;20043;-85
2023/10/18 13:44:44;;;;;;;2.65;2.55;;;;;;;;;;6272478;22;19996;-86
2023/10/18 13:47:11;;;;;;;2.78;2.60;;;;;;;;;;6245767;22;20011;-83
2023/10/18 13:49:39;;;;;;;2.92;2.53;;;;;;;;;;6271970;22;20008;-85
2023/10/18 13:52:05;;;;;;;3.20;2.78;;;;;;;;;;6272652;22;20020;-85
2023/10/18 13:54:31;;;;;;;3.03;2.60;;;;;;;;;;6259903;22;20043;-84
2023/10/18 13:57:01;;;;;;;2.65;2.45;;;;;;;;;;6265733;22;20039;-85
2023/10/18 13:59:28;;;;;;;3.15;2.90;;;;;;;;;;6272643;22;20015;-82
2023/10/18 14:01:54;;;;;;;2.78;2.58;;;;;;;;;;6271863;22;20027;-85
2023/10/18 14:04:25;;;;;;;7.18;3.05;;;;;;;;;;6270192;23;19992;-85
2023/10/18 14:06:54;;;;;;;2.58;2.38;;;;;;;;;;6270225;22;19996;-85
2023/10/18 14:09:22;;;;;;;2.58;2.47;;;;;;;;;;6265479;23;20352;-85
2023/10/18 14:11:48;;;;;;;3.00;2.80;;;;;;;;;;6267812;22;20042;-82
2023/10/18 14:14:14;;;;;;;3.90;2.63;;;;;;;;;;6271659;22;20008;-84
2023/10/18 14:16:40;;;;;;;3.22;3.03;;;;;;;;;;6229451;22;20016;-85
2023/10/18 14:19:07;;;;;;;3.33;3.03;;;;;;;;;;6236951;22;20016;-83
2023/10/18 15:27:00;;;;;;;5.88;5.43;;;;;;;;;;6279063;22;20076;-82
2023/10/18 15:29:27;;;;;;;4.95;3.97;;;;;;;;;;6256842;22;20611;-83
2023/10/18 15:31:54;;;;;;;6.43;5.82;;;;;;;;;;6284766;22;20030;-82
2023/10/18 15:34:20;;;;;;;6.90;6.28;;;;;;;;;;6283873;22;20020;-82
2023/10/18 15:36:47;;;;;;;6.20;5.60;;;;;;;;;;6283730;22;20082;-81
2023/10/18 15:39:18;;;;;;;6.65;5.57;;;;;;;;;;6256914;22;20018;-81
2023/10/18 15:41:44;;;;;;;7.28;6.10;;;;;;;;;;6283401;22;20012;-80
2023/10/18 15:44:12;;;;;;;6.07;4.88;;;;;;;;;;6281457;22;20015;-81
2023/10/18 15:46:38;;;;;;;7.50;6.90;;;;;;;;;;6280323;22;20012;-82
2023/10/18 15:49:04;;;;;;;14.38;13.07;;;;;;;;;;6278501;22;20019;-81
2023/10/18 15:51:32;;;;;;;17.90;14.38;;;;;;;;;;6273572;22;20034;-81
2023/10/18 15:53:58;;;;;;;15.77;14.23;;;;;;;;;;6275663;22;20024;-80
2023/10/18 15:56:24;;;;;;;23.00;17.55;;;;;;;;;;6246176;22;20455;-80
2023/10/18 15:58:51;;;;;;;14.18;12.82;;;;;;;;;;6273979;22;20016;-81
2023/10/18 16:01:17;;;;;;;12.05;10.82;;;;;;;;;;6247493;22;20004;-80
2023/10/18 16:03:44;;;;;;;9.73;8.75;;;;;;;;;;6275654;22;20018;-80
2023/10/18 16:06:12;;;;;;;10.88;9.68;;;;;;;;;;6275627;22;20012;-81
2023/10/18 16:08:38;;;;;;;11.55;9.75;;;;;;;;;;6275454;22;20099;-80
2023/10/18 16:11:05;;;;;;;15.27;10.35;;;;;;;;;;6277486;22;20007;-79
2023/10/18 16:13:31;;;;;;;8.00;7.30;;;;;;;;;;6284259;22;20020;-79
2023/10/18 16:15:58;;;;;;;8.07;7.25;;;;;;;;;;6260117;22;20014;-80
2023/10/18 16:18:24;;;;;;;7.85;6.28;;;;;;;;;;6288165;22;20102;-79
2023/10/18 16:20:56;;;;;;;8.80;6.82;;;;;;;;;;6255594;22;20611;-81
2023/10/18 16:23:22;;;;;;;6.35;5.50;;;;;;;;;;6250383;22;20016;-80
2023/10/18 16:25:48;;;;;;;6.35;5.85;;;;;;;;;;6274988;22;20023;-80
2023/10/18 16:28:14;;;;;;;6.97;6.47;;;;;;;;;;6281021;22;20046;-80
2023/10/18 16:30:42;;;;;;;5.80;5.40;;;;;;;;;;6198534;22;20016;-81
2023/10/18 16:33:08;;;;;;;7.15;6.65;;;;;;;;;;6274974;22;20098;-79
2023/10/18 16:35:34;;;;;;;6.93;6.32;;;;;;;;;;6223174;22;20334;-80
2023/10/18 16:38:00;;;;;;;7.90;7.13;;;;;;;;;;6223740;22;20020;-83
2023/10/18 16:40:26;;;;;;;7.28;6.57;;;;;;;;;;6284892;22;20035;-82
2023/10/18 16:42:52;;;;;;;8.00;7.30;;;;;;;;;;6286899;22;20020;-81
2023/10/18 16:45:19;;;;;;;8.35;7.18;;;;;;;;;;6298919;22;20007;-84
2023/10/18 16:47:45;;;;;;;9.35;8.55;;;;;;;;;;6295493;22;20003;-83
2023/10/18 16:50:14;;;;;;;7.85;7.25;;;;;;;;;;6276861;22;20040;-82
2023/10/18 16:52:40;;;;;;;7.38;6.78;;;;;;;;;;6299125;22;20011;-84
2023/10/18 16:55:07;;;;;;;8.32;7.63;;;;;;;;;;6300432;22;20394;-82
2023/10/18 16:57:35;;;;;;;8.15;7.40;;;;;;;;;;6297336;22;20030;-83
2023/10/18 17:00:03;;;;;;;9.90;8.15;;;;;;;;;;6286634;22;20026;-81
2023/10/18 17:02:30;;;;;;;10.30;9.38;;;;;;;;;;6251447;22;20106;-80
2023/10/18 17:04:56;;;;;;;9.20;8.48;;;;;;;;;;6277418;22;20012;-80
2023/10/18 17:07:22;;;;;;;9.05;8.18;;;;;;;;;;6284864;22;20011;-84
2023/10/18 17:09:50;;;;;;;11.35;10.13;;;;;;;;;;6299196;22;19995;-81
2023/10/18 17:15:16;;;;;;;10.35;9.23;;;;;;;;;;6241902;22;20032;-82
2023/10/18 17:20:32;;;;;;;10.60;8.82;;;;;;;;;;6256552;22;20013;-83
2023/10/18 17:22:58;;;;;;;12.18;8.65;;;;;;;;;;6164905;22;20020;-86
2023/10/18 17:25:24;;;;;;;10.25;8.82;;;;;;;;;;6240731;22;20039;-84
2023/10/18 17:27:50;;;;;;;9.70;8.80;;;;;;;;;;6235483;22;20040;-83
2023/10/18 17:32:54;;;;;;;10.25;9.02;;;;;;;;;;6240477;23;20028;-85
2023/10/18 17:35:20;;;;;;;10.00;9.05;;;;;;;;;;6213417;23;20017;-81
2023/10/18 17:37:47;;;;;;;7.75;7.15;;;;;;;;;;6195811;23;20206;-81
2023/10/18 17:40:14;;;;;;;9.68;8.52;;;;;;;;;;6166608;23;20357;-81
2023/10/18 17:42:40;;;;;;;9.20;8.40;;;;;;;;;;6186105;23;20012;-80
2023/10/18 17:45:10;;;;;;;9.05;8.25;;;;;;;;;;6213059;23;20167;-78
2023/10/18 17:47:37;;;;;;;9.10;8.32;;;;;;;;;;6183321;23;20083;-79
2023/10/18 17:50:09;;;;;;;11.55;9.90;;;;;;;;;;6208253;23;20023;-78
2023/10/18 17:52:36;;;;;;;8.07;7.38;;;;;;;;;;6208621;23;20095;-78
2023/10/18 17:55:03;;;;;;;10.88;7.97;;;;;;;;;;6181770;23;20504;-78
2023/10/18 17:57:34;;;;;;;9.63;8.70;;;;;;;;;;6209497;23;20024;-78
2023/10/18 18:00:05;;;;;;;11.52;8.20;;;;;;;;;;6182733;23;20016;-80
2023/10/18 18:02:45;;;;;;;10.13;8.90;;;;;;;;;;6182735;23;20790;-77
2023/10/18 18:05:11;;;;;;;9.82;9.00;;;;;;;;;;6208420;23;20087;-79
2023/10/18 18:07:37;;;;;;;9.73;8.73;;;;;;;;;;6180980;23;20127;-78
2023/10/18 18:10:06;;;;;;;8.68;7.88;;;;;;;;;;6207822;23;20423;-79
2023/10/18 18:12:32;;;;;;;10.50;9.55;;;;;;;;;;6209091;23;20013;-77
2023/10/18 18:15:01;;;;;;;12.98;11.65;;;;;;;;;;6209436;23;20063;-79
2023/10/18 18:17:30;;;;;;;11.32;9.65;;;;;;;;;;6186516;23;20095;-81
2023/10/18 18:19:56;;;;;;;10.18;9.30;;;;;;;;;;6214255;23;20036;-79
2023/10/18 18:22:22;;;;;;;12.38;9.30;;;;;;;;;;6183934;23;20012;-80
2023/10/18 18:24:48;;;;;;;7.13;6.57;;;;;;;;;;6160850;23;20012;-81
2023/10/18 18:27:19;;;;;;;8.00;6.20;;;;;;;;;;6220290;23;20036;-83
2023/10/18 18:29:45;;;;;;;7.45;6.75;;;;;;;;;;6187575;23;20008;-83
2023/10/18 18:32:12;;;;;;;10.38;6.70;;;;;;;;;;6208921;23;20028;-81
2023/10/18 18:34:38;;;;;;;6.78;6.18;;;;;;;;;;6248680;23;20015;-84
2023/10/18 18:37:04;;;;;;;7.72;6.88;;;;;;;;;;6250837;23;20012;-81
2023/10/18 18:39:32;;;;;;;7.78;5.82;;;;;;;;;;6239997;23;20070;-80
2023/10/18 18:41:58;;;;;;;11.15;6.10;;;;;;;;;;6215416;23;20058;-83
2023/10/18 18:44:24;;;;;;;9.45;5.63;;;;;;;;;;6217200;23;20058;-81
2023/10/18 18:46:50;;;;;;;4.70;4.22;;;;;;;;;;6220435;23;20012;-81
2023/10/18 18:49:16;;;;;;;8.10;6.15;;;;;;;;;;6250107;23;20039;-81
2023/10/18 18:51:42;;;;;;;7.05;4.88;;;;;;;;;;6249031;23;20091;-80
2023/10/18 18:54:08;;;;;;;5.07;4.63;;;;;;;;;;6214822;23;20499;-81
2023/10/18 18:56:35;;;;;;;6.10;5.60;;;;;;;;;;6250541;23;20000;-82
2023/10/18 19:01:49;;;;;;;4.78;4.38;;;;;;;;;;6239144;22;20036;-82
2023/10/18 19:04:16;;;;;;;4.68;4.28;;;;;;;;;;6245493;23;20460;-82
2023/10/18 19:06:41;;;;;;;5.30;4.75;;;;;;;;;;6243150;23;20724;-81
2023/10/18 19:09:08;;;;;;;4.80;4.38;;;;;;;;;;6241076;23;20038;-81
2023/10/18 19:11:34;;;;;;;8.48;5.25;;;;;;;;;;6239820;23;20012;-80
2023/10/18 19:14:00;;;;;;;4.80;4.40;;;;;;;;;;6188496;23;20444;-81
2023/10/18 19:16:26;;;;;;;5.35;4.85;;;;;;;;;;6240738;23;20018;-80
2023/10/18 19:18:55;;;;;;;5.43;4.85;;;;;;;;;;6189568;23;20066;-81
2023/10/18 19:21:23;;;;;;;5.65;4.20;;;;;;;;;;6241720;23;20347;-81
2023/10/18 19:23:49;;;;;;;3.90;2.88;;;;;;;;;;6241723;23;20448;-79
2023/10/18 19:26:15;;;;;;;4.32;4.00;;;;;;;;;;6245698;23;20023;-81
2023/10/18 19:28:44;;;;;;;8.15;5.50;;;;;;;;;;6243976;23;20008;-80
2023/10/18 19:31:10;;;;;;;6.30;5.47;;;;;;;;;;6243197;23;20035;-81
2023/10/18 19:33:37;;;;;;;4.63;4.22;;;;;;;;;;6240586;23;20024;-79
2023/10/18 19:36:03;;;;;;;7.43;4.85;;;;;;;;;;6213817;23;20012;-80
2023/10/18 19:38:30;;;;;;;5.03;4.60;;;;;;;;;;6240532;23;20016;-80
2023/10/18 19:40:57;;;;;;;8.50;4.95;;;;;;;;;;6240666;23;20043;-82
2023/10/18 19:43:24;;;;;;;3.55;3.25;;;;;;;;;;6219964;23;20068;-83
2023/10/18 19:45:50;;;;;;;4.30;3.88;;;;;;;;;;6257457;23;20100;-82
2023/10/18 19:48:19;;;;;;;4.88;4.35;;;;;;;;;;6258122;23;20356;-82
2023/10/18 19:50:45;;;;;;;5.30;4.90;;;;;;;;;;6229260;23;20019;-83
2023/10/18 19:53:11;;;;;;;7.28;4.35;;;;;;;;;;6255905;23;20024;-83
2023/10/18 19:55:37;;;;;;;5.05;4.43;;;;;;;;;;6253960;23;20008;-83
2023/10/18 19:58:03;;;;;;;4.35;3.95;;;;;;;;;;6221857;23;20515;-82
2023/10/18 20:00:30;;;;;;;5.18;4.78;;;;;;;;;;6252880;22;20016;-80
2023/10/18 20:02:56;;;;;;;6.22;3.90;;;;;;;;;;6283486;22;20018;-83
2023/10/18 20:05:22;;;;;;;5.40;4.20;;;;;;;;;;6245490;22;20489;-80
2023/10/18 20:07:49;;;;;;;6.20;4.72;;;;;;;;;;6253535;22;20016;-79
2023/10/18 20:10:14;;;;;;;5.65;4.63;;;;;;;;;;6281869;22;20060;-80
2023/10/18 20:12:41;;;;;;;4.93;4.30;;;;;;;;;;6273608;22;20074;-80
2023/10/18 20:15:08;;;;;;;5.43;4.93;;;;;;;;;;6247257;22;20012;-80
2023/10/18 20:17:34;;;;;;;6.43;4.85;;;;;;;;;;6274973;22;20031;-81
2023/10/18 20:20:00;;;;;;;4.43;4.13;;;;;;;;;;6225941;22;20007;-81
2023/10/18 20:22:26;;;;;;;5.63;4.70;;;;;;;;;;6288263;22;20016;-85
2023/10/18 20:27:40;;;;;;;5.43;4.88;;;;;;;;;;6182342;22;21487;-74
2023/10/18 20:30:08;;;;;;;3.65;3.25;;;;;;;;;;6213524;23;20533;-72
2023/10/18 20:32:34;;;;;;;9.00;5.05;;;;;;;;;;6212583;23;20087;-72
2023/10/18 20:35:00;;;;;;;4.90;4.43;;;;;;;;;;6239180;23;20024;-73
2023/10/18 20:37:26;;;;;;;7.07;5.40;;;;;;;;;;6239209;23;20359;-71
2023/10/18 20:39:53;;;;;;;4.88;4.25;;;;;;;;;;6212691;23;20489;-72
2023/10/18 20:42:22;;;;;;;6.28;5.68;;;;;;;;;;6238639;23;20455;-72
2023/10/18 20:44:52;;;;;;;5.28;4.78;;;;;;;;;;6212511;23;20444;-71
2023/10/18 20:47:27;;;;;;;4.57;4.18;;;;;;;;;;6239913;23;20106;-71
2023/10/18 20:49:53;;;;;;;5.10;4.65;;;;;;;;;;6240339;23;20008;-71
2023/10/18 20:52:19;;;;;;;5.55;5.00;;;;;;;;;;6240210;23;20369;-72
2023/10/18 20:54:46;;;;;;;5.90;5.40;;;;;;;;;;6188218;23;20012;-71
2023/10/18 20:57:13;;;;;;;5.63;5.20;;;;;;;;;;6238975;23;20460;-71
2023/10/18 20:59:45;;;;;;;8.02;5.78;;;;;;;;;;6241202;23;20451;-71
2023/10/18 21:02:22;;;;;;;7.45;6.00;;;;;;;;;;6241815;23;20012;-71
2023/10/18 21:04:49;;;;;;;7.63;6.45;;;;;;;;;;6242731;23;20022;-71
2023/10/18 21:07:39;;;;;;;8.43;7.28;;;;;;;;;;6216059;23;20031;-71
2023/10/18 21:10:04;;;;;;;7.45;6.75;;;;;;;;;;6215553;23;20403;-71
2023/10/18 21:12:30;;;;;;;6.43;5.85;;;;;;;;;;6215741;23;20069;-71
2023/10/18 21:14:57;;;;;;;9.40;7.05;;;;;;;;;;6242408;23;20012;-71
2023/10/18 21:17:23;;;;;;;8.30;7.50;;;;;;;;;;6242474;23;20007;-72
2023/10/18 21:19:49;;;;;;;7.47;6.75;;;;;;;;;;6242527;23;20016;-71
2023/10/18 21:22:15;;;;;;;8.82;7.38;;;;;;;;;;6215795;23;20119;-71
2023/10/18 21:24:41;;;;;;;7.88;7.18;;;;;;;;;;6242707;23;20023;-71
2023/10/18 21:27:07;;;;;;;7.68;6.88;;;;;;;;;;6216224;23;20019;-71
2023/10/18 21:29:36;;;;;;;6.90;6.18;;;;;;;;;;6242434;23;20028;-71
2023/10/18 21:32:02;;;;;;;8.73;7.93;;;;;;;;;;6242535;23;20031;-71
2023/10/18 21:34:28;;;;;;;6.55;6.05;;;;;;;;;;6242437;23;20016;-72
2023/10/18 21:36:54;;;;;;;7.60;6.07;;;;;;;;;;6190944;23;20146;-71
2023/10/18 21:39:24;;;;;;;6.20;5.60;;;;;;;;;;6215718;23;20066;-71
2023/10/18 21:41:50;;;;;;;7.75;6.53;;;;;;;;;;6243021;23;20020;-71
2023/10/18 21:44:16;;;;;;;6.65;6.15;;;;;;;;;;6242421;23;20008;-71
2023/10/18 21:46:43;;;;;;;6.45;5.80;;;;;;;;;;6216039;23;20464;-71
2023/10/18 21:49:10;;;;;;;14.25;6.70;;;;;;;;;;6215914;23;20763;-71
2023/10/18 21:51:37;;;;;;;7.60;6.90;;;;;;;;;;6243292;23;20417;-72
2023/10/18 21:54:03;;;;;;;8.18;6.15;;;;;;;;;;6242956;23;20452;-76
2023/10/18 21:56:29;;;;;;;8.52;5.97;;;;;;;;;;6242286;23;20148;-72